Grimstrup, Denmark
Current Conditions -  °F | °C
As of 6:50 PM on Thursday 18 Dec 2014 (Local Time) from EKEB Reporting Station
Rain Showers Rain Showers  
Wind Chill: 10°   Ceiling: 400
Heat Index: 10°   Visibility: 1.6mi
Dew Point:   Wind: 21mph
Humidity: 94%   Direction: 230°SW
Pressure: 29.38"   Gusts: NA
Location:  55.53°N, 8.66°E
Report Text: EKEB 181750Z AUTO 23018KT 2600NDV -SHRA BR OVC004///10/09 Q0995
Loading
Personal Weather Stations






























Interactive Weather Map New forecast layout! Learn more

10-Day Weather Forecast

Advertisements
Track Severe Weather on mobile